Flight Track Log - Related Links

Times and Time Zones

All times are in EDT time to prevent confusion due to time zone crossing. See the N329JB flight status page for this flight to view local times or setup timezone preferences in your user account.

Time Position Orientation Groundspeed Altitude Reporting Facility
EDT Latitude Longitude Course Direction KTS MPH feet Rate Location/Type
Thu 04:14:00 PM 18.0500 -63.3845 270° West  Level FlightAware Approximate
Thu 04:14:07 PM 17.9667 -63.2500 273° West 250 288 6,300  Level San Juan Center
Thu 04:15:00 PM 18.0500 -63.4800 270° West  Level FlightAware Approximate
Thu 04:15:07 PM 17.9167 -63.3167 232° Southwest 280 322 9,400  Level San Juan Center
Thu 04:16:00 PM 18.0538 -63.5753 275° West  Level FlightAware Approximate
Thu 04:16:07 PM 17.9000 -63.4000 258° West 310 357 11,300  Level San Juan Center
Thu 04:17:00 PM 18.0625 -63.6703 275° West  Level FlightAware Approximate
Thu 04:17:07 PM 17.8833 -63.4833 258° West 330 380 13,700  Level San Juan Center
Thu 04:18:00 PM 18.0694 -63.7655 273° West  Level FlightAware Approximate
Thu 04:18:08 PM 17.8833 -63.6000 270° West 350 403 16,100  Level San Juan Center
Thu 04:19:00 PM 18.0747 -63.8608 273° West  Level FlightAware Approximate
Thu 04:19:08 PM 17.9167 -63.7000 289° West 370 426 18,000  Level San Juan Center
Thu 04:20:08 PM 17.9500 -63.8000 289° West 370 426 18,000  Level San Juan Center
Thu 04:21:09 PM 17.9667 -63.9167 279° West 370 426 18,000  Level San Juan Center
Thu 04:22:09 PM 17.9833 -64.0167 280° West 370 426 18,000  Level San Juan Center
Thu 04:23:09 PM 18.0167 -64.1167 289° West 370 426 18,000  Level San Juan Center
Thu 04:24:10 PM 18.0333 -64.2167 280° West 370 426 18,000  Level San Juan Center
Thu 04:25:10 PM 18.0667 -64.3333 287° West 370 426 18,000  Level San Juan Center
Thu 04:26:10 PM 18.0833 -64.4333 280° West 370 426 18,000  Level San Juan Center
Thu 04:27:10 PM 18.1167 -64.5500 287° West 360 414 18,000  Level San Juan Center
Thu 04:28:11 PM 18.1333 -64.6333 282° West 360 414 18,000  Level San Juan Center
Thu 04:29:11 PM 18.1667 -64.7500 287° West 370 426 18,000  Level San Juan Center
Thu 04:30:11 PM 18.1833 -64.8500 280° West 370 426 18,000  Level San Juan Center
Thu 04:31:12 PM 18.2000 -64.9500 280° West 370 426 18,000 -496 Level San Juan Center
Thu 04:32:12 PM 18.2333 -65.0667 287° West 380 437 17,000 -1,350 Descending San Juan Center
Thu 04:33:12 PM 18.2500 -65.1667 280° West 360 414 15,300 -1,686 Descending San Juan Center
Thu 04:34:13 PM 18.2833 -65.2667 289° West 350 403 13,600 -1,686 Descending San Juan Center
Thu 04:35:13 PM 18.3000 -65.3667 280° West 340 391 11,900 -1,300 Descending San Juan Center
Thu 04:36:13 PM 18.3167 -65.4500 282° West 330 380 11,000 -595 Descending San Juan Center
Thu 04:37:14 PM 18.3500 -65.5500 289° West 340 391 10,700 -850 Descending San Juan Center
Thu 04:38:13 PM 18.3667 -65.6333 282° West 290 334 9,300 -1,500 Descending San Juan Center
Thu 04:39:14 PM 18.3833 -65.7167 282° West 280 322 7,700 -1,636 Descending San Juan Center
Thu 04:40:14 PM 18.3833 -65.8000 270° West 280 322 6,000 -1,037 Descending San Juan Center
Thu 04:42:00 PM 18.4250 -65.9504 245° Southwest  Level Estimated
Thu 04:44:15 PM 18.3500 -66.1167 71° East 240 276 2,500  Level San Juan Center
Thu 04:45:16 PM 18.4000 -66.1333 71° East 190 219 2,500 -446 Level San Juan Center
Thu 04:46:00 PM 18.4333 -66.0000 71° East  Level FlightAware Approximate
Thu 04:46:16 PM 18.4333 -66.1000 43° Northeast 190 219 1,600  Level San Juan Center
Thu 04:47:16 PM 18.4333 -66.0500 90° East 120 138 1,000 -600 Descending San Juan Center
Thu 04:49:00 PM 18.4333 -66.0000 71° East  Level FlightAware Approximate
Thu 04:53:00 PM 18.4393 -66.0020 71° East  Level Estimated

Login

Don't have an account? Register now (free) for customized features, flight alerts, and more!